createdAt,value
2023-05-16T00:00:17.421Z,102305.53
2023-05-16T00:02:47.794Z,102305.53
2023-05-16T00:05:16.403Z,102305.53
2023-05-16T00:07:45.818Z,102298.38
2023-05-16T00:10:14.477Z,102294.66
2023-05-16T00:12:44.298Z,102294.00
2023-05-16T00:15:14.243Z,102300.47
2023-05-16T00:17:46.668Z,102295.88
2023-05-16T00:20:17.436Z,102299.41
2023-05-16T00:22:46.347Z,102288.25
2023-05-16T00:25:14.481Z,102297.44
2023-05-16T00:27:45.734Z,102297.78
2023-05-16T00:30:14.719Z,102300.50
2023-05-16T00:32:43.331Z,102308.63
2023-05-16T00:35:12.464Z,102304.22
2023-05-16T00:37:42.130Z,102301.50
2023-05-16T00:40:11.210Z,102301.69
2023-05-16T00:42:39.764Z,102301.88
2023-05-16T00:45:09.381Z,102305.25
2023-05-16T00:47:38.146Z,102304.41
2023-05-16T00:50:08.083Z,102294.41
2023-05-16T00:52:36.353Z,102300.00
2023-05-16T00:55:08.047Z,102303.56
2023-05-16T00:57:36.695Z,102297.84
2023-05-16T01:00:06.711Z,102300.19
2023-05-16T01:02:36.533Z,102305.59
2023-05-16T01:05:06.837Z,102301.88
2023-05-16T01:07:35.274Z,102300.00
2023-05-16T01:10:04.417Z,102302.22
2023-05-16T01:12:42.368Z,102310.00
2023-05-16T01:15:14.379Z,102298.47
2023-05-16T01:17:54.891Z,102305.97
2023-05-16T01:20:34.844Z,102303.25
2023-05-16T01:23:19.971Z,102301.88
2023-05-16T01:25:59.293Z,102297.47
2023-05-16T01:28:29.931Z,102295.97
2023-05-16T01:30:58.080Z,102299.03
2023-05-16T01:33:26.650Z,102294.59
2023-05-16T01:36:02.773Z,102296.97
2023-05-16T01:38:38.799Z,102297.50
2023-05-16T01:41:17.414Z,102294.59
2023-05-16T01:43:52.721Z,102299.03
2023-05-16T01:46:25.430Z,102294.97
2023-05-16T01:49:00.058Z,102295.47
2023-05-16T01:51:33.477Z,102297.31
2023-05-16T01:54:07.633Z,102294.81
2023-05-16T01:56:37.682Z,102297.50
2023-05-16T01:59:09.905Z,102297.31
2023-05-16T02:01:38.397Z,102286.66
2023-05-16T02:04:06.652Z,102292.09
2023-05-16T02:06:36.962Z,102279.91
2023-05-16T02:09:05.121Z,102283.63
2023-05-16T02:11:33.274Z,102284.34
2023-05-16T02:14:01.444Z,102288.06
2023-05-16T02:16:31.546Z,102288.06
2023-05-16T02:19:00.202Z,102292.53
2023-05-16T02:21:28.624Z,102285.75
2023-05-16T02:23:57.016Z,102284.06
2023-05-16T02:26:25.180Z,102281.72
2023-05-16T02:28:54.393Z,102285.78
2023-05-16T02:31:29.383Z,102286.13
2023-05-16T02:33:59.592Z,102277.31
2023-05-16T02:36:29.100Z,102283.25
2023-05-16T02:38:57.378Z,102275.31
2023-05-16T02:41:26.023Z,102281.94
2023-05-16T02:43:54.209Z,102278.06
2023-05-16T02:46:23.916Z,102271.28
2023-05-16T02:48:52.621Z,102273.34
2023-05-16T02:51:24.061Z,102287.03
2023-05-16T02:53:53.013Z,102287.41
2023-05-16T02:56:21.832Z,102287.75
2023-05-16T02:58:51.302Z,102279.28
2023-05-16T03:01:19.607Z,102284.88
2023-05-16T03:03:48.102Z,102289.09
2023-05-16T03:06:16.426Z,102294.88
2023-05-16T03:08:46.142Z,102293.34
2023-05-16T03:11:14.448Z,102291.66
2023-05-16T03:13:42.742Z,102284.25
2023-05-16T03:16:10.965Z,102286.75
2023-05-16T03:18:39.122Z,102285.56
2023-05-16T03:21:07.417Z,102282.03
2023-05-16T03:23:35.794Z,102283.38
2023-05-16T03:26:07.990Z,102285.25
2023-05-16T03:28:36.084Z,102286.78
2023-05-16T03:31:04.417Z,102288.28
2023-05-16T03:33:32.725Z,102283.91
2023-05-16T03:36:00.849Z,102286.28
2023-05-16T03:38:29.260Z,102284.53
2023-05-16T03:40:57.909Z,102285.25
2023-05-16T03:43:27.328Z,102285.72
2023-05-16T03:45:55.959Z,102284.88
2023-05-16T03:48:24.129Z,102275.41
2023-05-16T03:50:52.573Z,102289.09
2023-05-16T03:53:23.947Z,102287.78
2023-05-16T03:55:52.105Z,102295.06
2023-05-16T03:58:20.240Z,102298.75
2023-05-16T04:00:49.645Z,102290.28
2023-05-16T04:03:17.887Z,102295.00
2023-05-16T04:05:46.151Z,102298.06
2023-05-16T04:08:14.290Z,102297.41
2023-05-16T04:10:42.458Z,102301.28
2023-05-16T04:13:10.608Z,102296.03
2023-05-16T04:15:39.046Z,102293.66
2023-05-16T04:18:09.770Z,102301.78
2023-05-16T04:20:38.024Z,102296.88
2023-05-16T04:23:06.203Z,102299.41
2023-05-16T04:25:34.577Z,102295.19
2023-05-16T04:28:02.875Z,102295.19
2023-05-16T04:30:31.116Z,102297.88
2023-05-16T04:32:59.773Z,102305.81
2023-05-16T04:35:29.918Z,102310.22
2023-05-16T04:37:58.320Z,102299.41
2023-05-16T04:40:27.858Z,102301.78
2023-05-16T04:42:56.083Z,102307.69
2023-05-16T04:45:24.444Z,102310.94
2023-05-16T04:47:53.445Z,102313.66
2023-05-16T04:50:21.864Z,102305.88
2023-05-16T04:52:51.268Z,102312.63
2023-05-16T04:55:19.542Z,102319.56
2023-05-16T04:57:47.971Z,102323.59
2023-05-16T05:00:17.738Z,102321.47
2023-05-16T05:02:46.023Z,102319.25
2023-05-16T05:05:14.442Z,102325.84
2023-05-16T05:07:43.224Z,102328.22
2023-05-16T05:10:13.314Z,102324.16
2023-05-16T05:12:41.521Z,102321.97
2023-05-16T05:15:09.948Z,102326.88
2023-05-16T05:17:38.921Z,102319.09
2023-05-16T05:20:08.845Z,102322.97
2023-05-16T05:22:37.272Z,102320.59
2023-05-16T05:25:06.499Z,102330.88
2023-05-16T05:28:01.064Z,102325.47
2023-05-16T05:30:29.352Z,102328.50
2023-05-16T05:32:57.567Z,102337.16
2023-05-16T05:35:26.061Z,102334.94
2023-05-16T05:37:54.806Z,102339.28
2023-05-16T05:40:23.056Z,102348.59
2023-05-16T05:42:51.242Z,102354.19
2023-05-16T05:45:21.350Z,102351.81
2023-05-16T05:47:49.800Z,102356.50
2023-05-16T05:50:19.642Z,102359.56
2023-05-16T05:52:48.147Z,102357.50
2023-05-16T05:55:16.509Z,102358.50
2023-05-16T05:57:44.898Z,102359.66
2023-05-16T06:00:14.289Z,102363.34
2023-05-16T06:02:44.150Z,102364.69
2023-05-16T06:05:12.634Z,102379.13
2023-05-16T06:07:40.955Z,102374.66
2023-05-16T06:10:35.248Z,102380.28
2023-05-16T06:13:03.853Z,102371.59
2023-05-16T06:15:32.317Z,102374.81
2023-05-16T06:18:02.224Z,102380.88
2023-05-16T06:20:30.711Z,102382.88
2023-05-16T06:22:59.688Z,102378.22
2023-05-16T06:25:29.613Z,102382.13
2023-05-16T06:27:58.291Z,102379.06
2023-05-16T06:30:26.496Z,102383.59
2023-05-16T06:32:54.560Z,102381.00
2023-05-16T06:35:24.538Z,102386.28
2023-05-16T06:37:52.881Z,102385.88
2023-05-16T06:40:21.099Z,102384.44
2023-05-16T06:42:49.590Z,102386.13
2023-05-16T06:45:18.471Z,102392.34
2023-05-16T06:47:46.922Z,102387.41
2023-05-16T06:50:15.777Z,102392.84
2023-05-16T06:52:45.361Z,102393.41
2023-05-16T06:55:13.926Z,102394.38
2023-05-16T06:57:42.664Z,102383.91
2023-05-16T07:00:12.110Z,102387.22
2023-05-16T07:02:40.560Z,102387.69
2023-05-16T07:05:09.582Z,102392.84
2023-05-16T07:07:38.120Z,102392.94
2023-05-16T07:10:08.711Z,102389.38
2023-05-16T07:12:37.851Z,102393.63
2023-05-16T07:15:07.181Z,102393.06
2023-05-16T07:17:35.587Z,102396.66
2023-05-16T07:20:05.627Z,102394.16
2023-05-16T07:22:33.958Z,102384.72
2023-05-16T07:25:02.231Z,102387.25
2023-05-16T07:27:32.242Z,102390.28
2023-05-16T07:30:00.783Z,102394.06
2023-05-16T07:32:29.305Z,102391.97
2023-05-16T07:34:57.949Z,102391.41
2023-05-16T07:37:26.056Z,102397.56
2023-05-16T07:39:54.490Z,102395.28
2023-05-16T07:42:22.718Z,102400.34
2023-05-16T07:44:52.373Z,102400.22
2023-05-16T07:47:20.673Z,102394.25
2023-05-16T07:49:49.228Z,102405.19
2023-05-16T07:52:17.427Z,102405.44
2023-05-16T07:54:47.522Z,102397.06
2023-05-16T07:57:16.342Z,102396.66
2023-05-16T07:59:44.901Z,102404.69
2023-05-16T08:02:14.884Z,102404.94
2023-05-16T08:04:43.125Z,102393.00
2023-05-16T08:07:11.554Z,102404.31
2023-05-16T08:09:39.897Z,102386.03
2023-05-16T08:12:09.283Z,102397.41
2023-05-16T08:14:38.044Z,102399.25
2023-05-16T08:17:06.704Z,102401.88
2023-05-16T08:19:36.391Z,102402.16
2023-05-16T08:22:05.063Z,102402.72
2023-05-16T08:24:33.236Z,102397.63
2023-05-16T08:27:01.706Z,102400.59
2023-05-16T08:29:30.449Z,102398.72
2023-05-16T08:31:59.174Z,102393.69
2023-05-16T08:34:27.728Z,102401.09
2023-05-16T08:36:57.783Z,102394.81
2023-05-16T08:39:26.476Z,102383.22
2023-05-16T08:41:58.193Z,102397.50
2023-05-16T08:44:26.728Z,102389.47
2023-05-16T08:46:56.421Z,102381.41
2023-05-16T08:49:28.602Z,102385.91
2023-05-16T08:52:01.361Z,102381.03
2023-05-16T08:54:29.862Z,102380.81
2023-05-16T08:56:59.701Z,102388.78
2023-05-16T08:59:28.467Z,102382.38
2023-05-16T09:01:57.300Z,102382.84
2023-05-16T09:04:27.728Z,102392.28
2023-05-16T09:06:56.299Z,102393.81
2023-05-16T09:09:26.306Z,102390.09
2023-05-16T09:11:54.752Z,102397.81
2023-05-16T09:14:23.052Z,102388.41
2023-05-16T09:17:05.801Z,102388.78
2023-05-16T09:19:41.325Z,102405.09
2023-05-16T09:22:11.444Z,102402.03
2023-05-16T09:24:42.197Z,102395.44
2023-05-16T09:27:12.186Z,102398.75
2023-05-16T09:29:42.011Z,102394.09
2023-05-16T09:32:12.337Z,102397.56
2023-05-16T09:34:41.494Z,102395.75
2023-05-16T09:37:11.328Z,102399.00
2023-05-16T09:39:48.479Z,102397.34
2023-05-16T09:42:17.881Z,102398.94
2023-05-16T09:44:49.061Z,102389.22
2023-05-16T09:47:18.768Z,102394.75
2023-05-16T09:49:48.570Z,102396.00
2023-05-16T09:52:17.878Z,102397.66
2023-05-16T09:54:49.924Z,102391.03
2023-05-16T09:57:20.661Z,102388.25
2023-05-16T10:00:42.819Z,102378.94
2023-05-16T10:03:11.899Z,102380.94
2023-05-16T10:05:42.523Z,102387.78
2023-05-16T10:08:15.040Z,102389.81
2023-05-16T10:10:44.812Z,102387.16
2023-05-16T10:13:14.484Z,102392.47
2023-05-16T10:15:45.331Z,102383.59
2023-05-16T10:18:18.905Z,102387.06
2023-05-16T10:20:50.978Z,102385.31
2023-05-16T10:23:26.069Z,102393.94
2023-05-16T10:26:05.394Z,102372.34
2023-05-16T10:28:34.582Z,102374.97
2023-05-16T10:31:04.280Z,102375.19
2023-05-16T10:33:46.583Z,102374.44
2023-05-16T10:36:31.569Z,102379.13
2023-05-16T10:39:05.128Z,102374.28
2023-05-16T10:41:35.678Z,102379.66
2023-05-16T10:44:04.989Z,102365.69
2023-05-16T10:46:33.293Z,102365.22
2023-05-16T10:49:21.093Z,102372.34
2023-05-16T10:52:05.416Z,102362.16
2023-05-16T10:54:38.031Z,102356.59
2023-05-16T10:57:09.953Z,102367.53
2023-05-16T10:59:43.708Z,102364.00
2023-05-16T11:02:25.056Z,102364.22
2023-05-16T11:04:54.560Z,102364.34
2023-05-16T11:07:27.550Z,102362.56
2023-05-16T11:10:09.803Z,102360.38
2023-05-16T11:12:45.187Z,102371.72
2023-05-16T11:15:22.378Z,102368.78
2023-05-16T11:17:51.017Z,102371.66
2023-05-16T11:20:31.537Z,102363.88
2023-05-16T11:23:22.918Z,102365.25
2023-05-16T11:25:54.990Z,102357.88
2023-05-16T11:28:28.213Z,102353.13
2023-05-16T11:36:15.880Z,102364.41
2023-05-16T11:38:45.318Z,102352.84
2023-05-16T11:41:15.694Z,102350.69
2023-05-16T11:43:46.760Z,102353.22
2023-05-16T11:46:16.565Z,102351.25
2023-05-16T11:48:46.433Z,102351.13
2023-05-16T11:51:18.868Z,102357.31
2023-05-16T11:53:49.807Z,102348.56
2023-05-16T11:56:18.601Z,102350.13
2023-05-16T11:58:48.469Z,102348.75
2023-05-16T12:01:16.593Z,102352.34
2023-05-16T12:03:45.225Z,102352.19
2023-05-16T12:06:13.466Z,102357.09
2023-05-16T12:08:54.237Z,102350.22
2023-05-16T12:11:24.766Z,102346.13
2023-05-16T12:13:54.488Z,102349.66
2023-05-16T12:16:23.020Z,102349.25
2023-05-16T12:18:51.551Z,102343.31
2023-05-16T12:21:19.987Z,102348.44
2023-05-16T12:23:48.376Z,102340.38
2023-05-16T12:26:17.232Z,102336.09
2023-05-16T12:28:45.568Z,102341.84
2023-05-16T12:31:31.879Z,102340.34
2023-05-16T12:34:01.265Z,102337.88
2023-05-16T12:36:34.371Z,102336.13
2023-05-16T12:39:03.896Z,102338.19
2023-05-16T12:41:32.713Z,102323.28
2023-05-16T12:44:14.659Z,102335.50
2023-05-16T12:46:45.884Z,102333.38
2023-05-16T12:49:14.689Z,102335.09
2023-05-16T12:51:49.297Z,102335.34
2023-05-16T12:54:17.847Z,102330.81
2023-05-16T12:56:49.979Z,102337.72
2023-05-16T12:59:20.427Z,102343.97
2023-05-16T13:01:50.463Z,102332.97
2023-05-16T13:04:20.337Z,102335.47
2023-05-16T13:06:59.371Z,102339.59
2023-05-16T13:09:31.377Z,102334.50
2023-05-16T13:12:01.378Z,102328.81
2023-05-16T13:14:29.801Z,102328.34
2023-05-16T13:16:59.393Z,102325.28
2023-05-16T13:19:27.827Z,102321.69
2023-05-16T13:21:56.300Z,102313.19
2023-05-16T13:24:24.572Z,102324.69
2023-05-16T13:26:53.685Z,102329.06
2023-05-16T13:29:22.467Z,102324.16
2023-05-16T13:31:50.982Z,102332.03
2023-05-16T13:34:20.660Z,102331.97
2023-05-16T13:36:54.380Z,102326.47
2023-05-16T13:39:23.707Z,102330.25
2023-05-16T13:41:52.730Z,102321.28
2023-05-16T13:44:22.563Z,102324.28
2023-05-16T13:46:51.199Z,102322.13
2023-05-16T13:49:21.075Z,102318.63
2023-05-16T13:51:49.326Z,102328.06
2023-05-16T13:54:17.456Z,102316.88
2023-05-16T13:56:45.984Z,102317.25
2023-05-16T13:59:20.608Z,102322.97
2023-05-16T14:01:56.634Z,102323.97
2023-05-16T14:04:27.154Z,102304.59
2023-05-16T14:06:56.479Z,102324.19
2023-05-16T14:09:27.076Z,102313.50
2023-05-16T14:11:55.497Z,102319.47
2023-05-16T14:14:23.968Z,102313.13
2023-05-16T14:16:53.010Z,102312.47
2023-05-16T14:19:21.279Z,102315.00
2023-05-16T14:21:53.187Z,102317.56
2023-05-16T14:24:21.364Z,102315.72
2023-05-16T14:26:49.766Z,102305.28
2023-05-16T14:29:18.124Z,102307.81
2023-05-16T14:31:47.202Z,102311.44
2023-05-16T14:34:15.666Z,102310.78
2023-05-16T14:36:44.080Z,102315.63
2023-05-16T14:39:14.333Z,102298.53
2023-05-16T14:41:42.847Z,102299.75
2023-05-16T14:44:11.272Z,102314.91
2023-05-16T14:46:40.230Z,102320.06
2023-05-16T14:49:09.077Z,102315.47
2023-05-16T14:51:37.146Z,102307.63
2023-05-16T14:54:05.638Z,102314.28
2023-05-16T14:56:35.258Z,102308.78
2023-05-16T14:59:03.497Z,102319.91
2023-05-16T15:01:32.077Z,102317.25
2023-05-16T15:04:00.333Z,102319.47
2023-05-16T15:06:28.601Z,102326.53
2023-05-16T15:08:56.930Z,102319.16
2023-05-16T15:11:25.246Z,102331.38
2023-05-16T15:13:56.504Z,102331.75
2023-05-16T15:16:25.176Z,102322.66
2023-05-16T15:18:53.728Z,102324.50
2023-05-16T15:21:22.212Z,102331.06
2023-05-16T15:23:50.734Z,102323.56
2023-05-16T15:26:19.398Z,102337.81
2023-05-16T15:28:48.118Z,102340.66
2023-05-16T15:31:18.257Z,102342.94
2023-05-16T15:33:48.515Z,102336.41
2023-05-16T15:36:17.004Z,102339.31
2023-05-16T15:38:45.868Z,102352.41
2023-05-16T15:41:36.763Z,102339.31
2023-05-16T15:44:04.772Z,102346.94
2023-05-16T15:46:34.552Z,102341.22
2023-05-16T15:49:03.096Z,102338.91
2023-05-16T15:51:31.776Z,102345.47
2023-05-16T15:54:00.545Z,102348.59
2023-05-16T15:56:29.045Z,102351.41
2023-05-16T15:58:57.626Z,102358.00
2023-05-16T16:01:25.991Z,102356.28
2023-05-16T16:03:56.052Z,102357.59
2023-05-16T16:06:26.546Z,102355.59
2023-05-16T16:08:54.893Z,102357.63
2023-05-16T16:11:23.522Z,102363.59
2023-05-16T16:13:51.996Z,102352.03
2023-05-16T16:16:20.302Z,102355.72
2023-05-16T16:18:48.793Z,102356.72
2023-05-16T16:21:18.632Z,102359.84
2023-05-16T16:23:46.915Z,102356.19
2023-05-16T16:26:15.671Z,102364.94
2023-05-16T16:28:44.094Z,102368.56
2023-05-16T16:31:13.134Z,102363.19
2023-05-16T16:33:42.345Z,102364.75
2023-05-16T16:36:11.388Z,102359.22
2023-05-16T16:38:41.155Z,102348.75
2023-05-16T16:41:09.260Z,102360.13
2023-05-16T16:43:39.859Z,102362.03
2023-05-16T16:46:08.456Z,102368.59
2023-05-16T16:48:37.841Z,102363.94
2023-05-16T16:51:06.168Z,102365.00
2023-05-16T16:53:35.367Z,102367.28
2023-05-16T16:56:06.512Z,102365.59
2023-05-16T16:58:51.371Z,102368.00
2023-05-16T17:01:28.938Z,102360.28
2023-05-16T17:03:58.154Z,102361.50
2023-05-16T17:06:26.596Z,102361.75
2023-05-16T17:08:54.891Z,102372.84
2023-05-16T17:11:24.946Z,102367.81
2023-05-16T17:13:55.414Z,102379.41
2023-05-16T17:16:23.788Z,102380.78
2023-05-16T17:18:52.771Z,102374.69
2023-05-16T17:21:22.012Z,102377.31
2023-05-16T17:23:51.911Z,102372.06
2023-05-16T17:26:20.378Z,102362.34
2023-05-16T17:28:50.465Z,102372.41
2023-05-16T17:31:18.900Z,102364.59
2023-05-16T17:33:47.617Z,102368.03
2023-05-16T17:36:16.275Z,102370.56
2023-05-16T17:38:44.839Z,102370.28
2023-05-16T17:41:14.861Z,102375.22
2023-05-16T17:43:45.215Z,102379.94
2023-05-16T17:46:15.607Z,102384.84
2023-05-16T17:48:44.587Z,102382.84
2023-05-16T17:51:13.302Z,102387.22
2023-05-16T17:53:41.926Z,102382.78
2023-05-16T17:56:10.662Z,102392.84
2023-05-16T17:58:39.656Z,102392.47
2023-05-16T18:01:09.438Z,102391.59
2023-05-16T18:03:55.427Z,102397.22
2023-05-16T18:06:30.611Z,102397.50
2023-05-16T18:09:01.189Z,102409.03
2023-05-16T18:11:29.995Z,102410.63
2023-05-16T18:13:58.604Z,102409.56
2023-05-16T18:16:26.954Z,102405.34
2023-05-16T18:18:56.873Z,102414.88
2023-05-16T18:21:25.583Z,102412.75
2023-05-16T18:23:55.311Z,102417.75
2023-05-16T18:26:25.347Z,102411.16
2023-05-16T18:28:53.742Z,102414.19
2023-05-16T18:31:22.504Z,102417.00
2023-05-16T18:33:51.496Z,102422.03
2023-05-16T18:36:23.969Z,102415.66
2023-05-16T18:38:52.336Z,102423.25
2023-05-16T18:41:20.717Z,102423.50
2023-05-16T18:43:51.245Z,102425.66
2023-05-16T18:46:19.875Z,102417.69
2023-05-16T18:48:49.185Z,102431.81
2023-05-16T18:51:17.979Z,102422.78
2023-05-16T18:53:47.746Z,102434.81
2023-05-16T18:56:16.111Z,102432.72
2023-05-16T18:58:44.535Z,102428.75
2023-05-16T19:01:12.977Z,102429.38
2023-05-16T19:03:41.326Z,102439.47
2023-05-16T19:06:09.981Z,102439.97
2023-05-16T19:08:47.725Z,102443.31
2023-05-16T19:11:18.593Z,102443.75
2023-05-16T19:13:47.819Z,102444.16
2023-05-16T19:16:16.575Z,102446.66
2023-05-16T19:18:45.062Z,102452.59
2023-05-16T19:21:14.354Z,102454.09
2023-05-16T19:23:50.523Z,102467.78
2023-05-16T19:26:20.295Z,102469.44
2023-05-16T19:28:48.966Z,102469.28
2023-05-16T19:31:17.297Z,102470.72
2023-05-16T19:33:45.879Z,102465.72
2023-05-16T19:36:14.144Z,102473.69
2023-05-16T19:38:42.787Z,102476.63
2023-05-16T19:41:11.172Z,102476.22
2023-05-16T19:43:41.205Z,102479.59
2023-05-16T19:46:09.763Z,102489.91
2023-05-16T19:48:38.397Z,102491.81
2023-05-16T19:51:06.876Z,102485.50
2023-05-16T19:53:35.251Z,102493.50
2023-05-16T19:56:04.708Z,102492.44
2023-05-16T19:58:33.066Z,102497.06
2023-05-16T20:01:03.078Z,102493.50
2023-05-16T20:03:32.092Z,102498.34
2023-05-16T20:06:00.843Z,102502.53
2023-05-16T20:08:29.108Z,102504.22
2023-05-16T20:11:00.105Z,102505.06
2023-05-16T20:13:30.563Z,102509.47
2023-05-16T20:15:58.885Z,102509.03
2023-05-16T20:18:28.539Z,102508.44
2023-05-16T20:20:58.654Z,102502.50
2023-05-16T20:23:27.186Z,102505.25
2023-05-16T20:25:55.356Z,102509.44
2023-05-16T20:28:27.249Z,102509.44
2023-05-16T20:30:55.661Z,102518.25
2023-05-16T20:33:25.491Z,102512.13
2023-05-16T20:35:55.420Z,102517.59
2023-05-16T20:38:24.045Z,102522.97
2023-05-16T20:40:52.345Z,102515.84
2023-05-16T20:43:20.557Z,102536.22
2023-05-16T20:45:48.974Z,102533.66
2023-05-16T20:48:17.460Z,102530.69
2023-05-16T20:50:45.810Z,102541.38
2023-05-16T20:53:15.868Z,102539.88
2023-05-16T20:55:44.190Z,102544.28
2023-05-16T20:58:12.456Z,102543.38
2023-05-16T21:00:40.801Z,102545.88
2023-05-16T21:03:09.281Z,102553.19
2023-05-16T21:05:37.835Z,102548.50
2023-05-16T21:08:06.582Z,102550.16
2023-05-16T21:10:36.200Z,102557.47
2023-05-16T21:13:04.721Z,102553.84
2023-05-16T21:15:32.840Z,102563.84
2023-05-16T21:18:01.192Z,102575.38
2023-05-16T21:20:30.211Z,102572.56
2023-05-16T21:22:58.437Z,102580.91
2023-05-16T21:25:27.020Z,102576.22
2023-05-16T21:27:56.784Z,102580.28
2023-05-16T21:30:25.218Z,102580.88
2023-05-16T21:32:53.541Z,102582.50
2023-05-16T21:35:22.192Z,102582.88
2023-05-16T21:37:50.394Z,102582.22
2023-05-16T21:40:24.933Z,102575.03
2023-05-16T21:42:53.602Z,102583.78
2023-05-16T21:45:23.241Z,102587.09
2023-05-16T21:47:51.610Z,102581.19
2023-05-16T21:50:20.188Z,102579.22
2023-05-16T21:52:48.463Z,102581.03
2023-05-16T21:55:16.841Z,102586.03
2023-05-16T21:57:45.270Z,102578.78
2023-05-16T22:00:15.138Z,102586.69
2023-05-16T22:02:45.164Z,102579.91
2023-05-16T22:05:14.656Z,102580.69
2023-05-16T22:07:43.410Z,102583.97
2023-05-16T22:10:12.498Z,102587.47
2023-05-16T22:12:40.814Z,102589.06
2023-05-16T22:15:09.808Z,102585.03
2023-05-16T22:17:38.400Z,102586.44
2023-05-16T22:20:09.596Z,102598.75
2023-05-16T22:22:37.794Z,102600.16
2023-05-16T22:25:07.015Z,102592.72
2023-05-16T22:27:35.362Z,102588.88
2023-05-16T22:30:03.731Z,102597.44
2023-05-16T22:32:32.335Z,102594.88
2023-05-16T22:35:00.683Z,102592.25
2023-05-16T22:37:30.256Z,102598.06
2023-05-16T22:39:58.463Z,102598.41
2023-05-16T22:42:26.654Z,102594.72
2023-05-16T22:44:54.793Z,102600.69
2023-05-16T22:47:22.991Z,102595.63
2023-05-16T22:49:51.072Z,102600.22
2023-05-16T22:52:19.234Z,102603.50
2023-05-16T22:54:49.121Z,102600.69
2023-05-16T22:57:17.410Z,102601.03
2023-05-16T22:59:45.675Z,102608.91
2023-05-16T23:02:13.851Z,102606.56
2023-05-16T23:04:42.065Z,102607.09
2023-05-16T23:07:10.430Z,102606.63
2023-05-16T23:09:38.586Z,102608.00
2023-05-16T23:12:09.461Z,102604.81
2023-05-16T23:14:37.611Z,102611.69
2023-05-16T23:17:06.462Z,102612.00
2023-05-16T23:19:34.696Z,102601.94
2023-05-16T23:22:03.474Z,102598.75
2023-05-16T23:24:31.804Z,102610.34
2023-05-16T23:27:00.074Z,102604.31
2023-05-16T23:29:29.615Z,102604.03
2023-05-16T23:31:57.975Z,102605.38
2023-05-16T23:34:26.337Z,102607.16
2023-05-16T23:36:54.655Z,102606.50
2023-05-16T23:39:22.884Z,102605.81
2023-05-16T23:41:51.135Z,102605.69
2023-05-16T23:44:19.438Z,102597.91
2023-05-16T23:46:49.058Z,102607.25
2023-05-16T23:49:17.219Z,102598.78
2023-05-16T23:54:20.961Z,102601.19
2023-05-16T23:56:49.244Z,102605.97
2023-05-16T23:59:19.053Z,102608.88
